createdAt,value
2022-08-17T00:01:27.239Z,88.01
2022-08-17T00:03:54.990Z,88.28
2022-08-17T00:06:28.563Z,88.30
2022-08-17T00:09:04.311Z,88.24
2022-08-17T00:11:40.274Z,89.02
2022-08-17T00:14:18.870Z,88.78
2022-08-17T00:16:56.869Z,89.07
2022-08-17T00:19:27.484Z,89.96
2022-08-17T00:22:31.610Z,89.74
2022-08-17T00:24:47.783Z,90.30
2022-08-17T00:27:15.022Z,90.58
2022-08-17T00:29:42.269Z,90.10
2022-08-17T00:33:11.612Z,90.19
2022-08-17T00:34:57.651Z,89.84
2022-08-17T00:37:24.991Z,89.90
2022-08-17T00:39:52.386Z,90.16
2022-08-17T00:42:20.422Z,90.71
2022-08-17T00:44:47.991Z,89.76
2022-08-17T00:47:15.292Z,89.99
2022-08-17T00:49:42.606Z,90.36
2022-08-17T00:52:21.628Z,90.30
2022-08-17T00:54:54.832Z,90.42
2022-08-17T00:57:35.028Z,90.19
2022-08-17T01:00:14.795Z,90.21
2022-08-17T01:02:46.859Z,91.08
2022-08-17T01:05:25.643Z,91.06
2022-08-17T01:07:54.943Z,91.33
2022-08-17T01:10:59.260Z,91.57
2022-08-17T01:13:41.289Z,91.29
2022-08-17T01:16:26.106Z,91.40
2022-08-17T01:19:03.203Z,91.93
2022-08-17T01:21:53.130Z,91.57
2022-08-17T01:26:48.550Z,91.58
2022-08-17T01:29:16.774Z,91.20
2022-08-17T01:31:55.598Z,91.57
2022-08-17T01:34:24.975Z,91.98
2022-08-17T01:37:11.773Z,91.15
2022-08-17T01:39:55.900Z,91.62
2022-08-17T01:42:42.320Z,91.90
2022-08-17T01:45:26.691Z,91.40
2022-08-17T01:47:56.303Z,91.78
2022-08-17T01:50:37.895Z,90.93
2022-08-17T01:53:21.213Z,91.20
2022-08-17T01:56:02.795Z,91.42
2022-08-17T01:58:30.241Z,91.64
2022-08-17T02:01:01.219Z,91.85
2022-08-17T02:03:31.499Z,92.34
2022-08-17T02:05:58.972Z,92.46
2022-08-17T02:08:37.123Z,91.93
2022-08-17T02:11:19.679Z,91.97
2022-08-17T02:13:57.885Z,91.78
2022-08-17T02:16:38.381Z,91.36
2022-08-17T02:19:10.749Z,91.70
2022-08-17T02:21:41.174Z,91.29
2022-08-17T02:24:58.160Z,91.65
2022-08-17T02:27:07.442Z,92.37
2022-08-17T02:29:34.769Z,91.92
2022-08-17T02:32:02.639Z,92.31
2022-08-17T02:34:30.076Z,92.21
2022-08-17T02:36:57.551Z,92.38
2022-08-17T02:39:24.866Z,92.89
2022-08-17T02:42:02.749Z,92.87
2022-08-17T02:44:38.932Z,93.01
2022-08-17T02:47:10.312Z,92.83
2022-08-17T02:49:38.211Z,92.99
2022-08-17T02:52:08.143Z,93.08
2022-08-17T02:54:41.702Z,93.21
2022-08-17T02:57:11.193Z,93.74
2022-08-17T02:59:44.258Z,94.00
2022-08-17T03:02:15.726Z,94.30
2022-08-17T03:04:43.218Z,94.86
2022-08-17T03:07:10.547Z,95.26
2022-08-17T03:09:37.951Z,94.81
2022-08-17T03:12:13.742Z,95.68
2022-08-17T03:14:43.240Z,96.20
2022-08-17T03:17:17.018Z,95.83
2022-08-17T03:19:45.162Z,95.78
2022-08-17T03:22:36.247Z,96.24
2022-08-17T03:24:59.710Z,97.11
2022-08-17T03:27:27.003Z,97.97
2022-08-17T03:29:55.135Z,99.05
2022-08-17T03:32:22.510Z,99.41
2022-08-17T03:34:50.024Z,100.00
2022-08-17T03:37:17.354Z,100.00
2022-08-17T03:39:44.691Z,100.00
2022-08-17T03:42:32.095Z,100.00
2022-08-17T03:45:02.301Z,100.00
2022-08-17T03:47:48.287Z,100.00
2022-08-17T03:50:36.851Z,100.00
2022-08-17T03:53:30.268Z,100.00
2022-08-17T03:56:24.436Z,100.00
2022-08-17T03:58:51.708Z,100.00
2022-08-17T04:01:19.210Z,100.00
2022-08-17T04:03:46.510Z,100.00
2022-08-17T04:06:15.170Z,100.00
2022-08-17T04:08:42.462Z,100.00
2022-08-17T04:11:10.467Z,100.00
2022-08-17T04:13:37.855Z,100.00
2022-08-17T04:16:05.625Z,100.00
2022-08-17T04:18:32.916Z,100.00
2022-08-17T04:21:01.092Z,100.00
2022-08-17T04:23:32.953Z,100.00
2022-08-17T04:26:04.372Z,100.00
2022-08-17T04:28:31.658Z,100.00
2022-08-17T04:30:59.709Z,100.00
2022-08-17T04:33:30.002Z,100.00
2022-08-17T04:36:03.265Z,100.00
2022-08-17T04:38:39.610Z,100.00
2022-08-17T04:41:27.174Z,100.00
2022-08-17T04:43:58.251Z,100.00
2022-08-17T04:46:36.412Z,100.00
2022-08-17T04:49:11.541Z,100.00
2022-08-17T04:51:56.820Z,100.00
2022-08-17T04:54:28.627Z,100.00
2022-08-17T04:56:56.756Z,100.00
2022-08-17T04:59:26.795Z,100.00
2022-08-17T05:01:54.691Z,100.00
2022-08-17T05:04:34.121Z,100.00
2022-08-17T05:07:04.567Z,100.00
2022-08-17T05:09:32.597Z,100.00
2022-08-17T05:12:04.323Z,100.00
2022-08-17T05:14:33.315Z,100.00
2022-08-17T05:17:07.046Z,100.00
2022-08-17T05:19:37.416Z,100.00
2022-08-17T05:22:06.533Z,100.00
2022-08-17T05:24:42.920Z,100.00
2022-08-17T05:27:18.878Z,100.00
2022-08-17T05:29:46.603Z,100.00
2022-08-17T05:32:39.480Z,100.00
2022-08-17T05:35:01.872Z,100.00
2022-08-17T05:37:29.225Z,100.00
2022-08-17T05:39:56.741Z,100.00
2022-08-17T05:42:24.167Z,100.00
2022-08-17T05:44:51.517Z,100.00
2022-08-17T05:47:19.093Z,100.00
2022-08-17T05:49:49.017Z,100.00
2022-08-17T05:53:02.916Z,100.00
2022-08-17T05:56:10.912Z,100.00
2022-08-17T05:59:29.087Z,100.00
2022-08-17T06:02:17.833Z,100.00
2022-08-17T06:05:43.787Z,100.00
2022-08-17T06:08:56.811Z,100.00
2022-08-17T06:12:27.895Z,100.00
2022-08-17T06:15:01.835Z,100.00
2022-08-17T06:17:31.123Z,100.00
2022-08-17T06:20:08.226Z,100.00
2022-08-17T06:22:49.544Z,100.00
2022-08-17T06:25:51.350Z,100.00
2022-08-17T06:28:46.806Z,100.00
2022-08-17T06:31:33.523Z,100.00
2022-08-17T06:34:09.099Z,100.00
2022-08-17T06:37:15.286Z,100.00
2022-08-17T06:40:39.972Z,99.49
2022-08-17T06:44:49.866Z,99.20
2022-08-17T06:47:29.368Z,98.19
2022-08-17T06:50:20.499Z,98.25
2022-08-17T06:53:36.464Z,97.22
2022-08-17T06:56:13.659Z,96.99
2022-08-17T06:58:44.970Z,96.34
2022-08-17T07:01:25.129Z,95.52
2022-08-17T07:04:11.564Z,95.27
2022-08-17T07:07:00.563Z,96.29
2022-08-17T07:09:38.646Z,95.30
2022-08-17T07:12:20.019Z,93.63
2022-08-17T07:15:41.839Z,93.12
2022-08-17T07:18:10.866Z,93.22
2022-08-17T07:20:48.012Z,93.17
2022-08-17T07:24:03.031Z,93.13
2022-08-17T07:26:30.390Z,93.33
2022-08-17T07:29:01.734Z,92.68
2022-08-17T07:31:33.504Z,92.60
2022-08-17T07:34:14.617Z,92.65
2022-08-17T07:36:43.105Z,93.53
2022-08-17T07:39:11.574Z,91.98
2022-08-17T07:41:57.491Z,91.98
2022-08-17T07:44:27.705Z,92.83
2022-08-17T07:47:15.112Z,92.40
2022-08-17T07:49:46.264Z,91.97
2022-08-17T07:52:50.372Z,92.70
2022-08-17T07:55:34.911Z,92.52
2022-08-17T07:58:03.401Z,92.58
2022-08-17T08:00:33.068Z,92.40
2022-08-17T08:03:20.302Z,92.62
2022-08-17T08:06:00.190Z,91.09
2022-08-17T08:08:40.721Z,90.75
2022-08-17T08:11:15.448Z,91.00
2022-08-17T08:13:45.567Z,89.13
2022-08-17T08:16:31.471Z,87.17
2022-08-17T08:19:03.082Z,87.99
2022-08-17T08:21:51.330Z,88.13
2022-08-17T08:25:02.956Z,88.31
2022-08-17T08:28:27.258Z,89.53
2022-08-17T08:31:42.406Z,90.37
2022-08-17T08:35:02.905Z,91.11
2022-08-17T08:38:07.680Z,91.71
2022-08-17T08:41:16.326Z,92.33
2022-08-17T08:45:00.687Z,92.96
2022-08-17T08:48:45.929Z,91.24
2022-08-17T08:51:59.620Z,89.28
2022-08-17T08:54:59.874Z,89.43
2022-08-17T08:57:40.118Z,89.23
2022-08-17T09:00:19.114Z,87.68
2022-08-17T09:03:20.073Z,88.11
2022-08-17T09:06:40.201Z,84.74
2022-08-17T09:09:49.696Z,86.53
2022-08-17T09:12:43.762Z,81.83
2022-08-17T09:15:27.496Z,82.70
2022-08-17T09:18:59.210Z,80.89
2022-08-17T09:21:48.399Z,77.18
2022-08-17T09:24:49.217Z,74.61
2022-08-17T09:27:33.259Z,75.18
2022-08-17T09:30:09.785Z,75.84
2022-08-17T09:32:41.367Z,75.28
2022-08-17T09:35:36.869Z,75.87
2022-08-17T09:38:28.024Z,76.75
2022-08-17T09:41:19.536Z,76.59
2022-08-17T09:44:39.314Z,77.07
2022-08-17T09:47:45.525Z,77.69
2022-08-17T09:51:05.299Z,78.46
2022-08-17T09:53:17.847Z,78.34
2022-08-17T09:56:43.793Z,78.21
2022-08-17T09:59:21.994Z,78.93
2022-08-17T10:02:25.653Z,79.42
2022-08-17T10:05:15.401Z,79.06
2022-08-17T10:08:24.402Z,80.08
2022-08-17T10:12:09.573Z,79.83
2022-08-17T10:15:13.922Z,81.13
2022-08-17T10:18:21.457Z,82.64
2022-08-17T10:21:29.862Z,86.06
2022-08-17T10:25:21.296Z,89.60
2022-08-17T10:27:52.669Z,92.15
2022-08-17T10:30:25.263Z,93.73
2022-08-17T10:33:07.050Z,95.76
2022-08-17T10:36:10.199Z,98.09
2022-08-17T10:38:49.518Z,99.45
2022-08-17T10:41:43.488Z,100.00
2022-08-17T10:44:37.483Z,100.00
2022-08-17T10:47:15.448Z,100.00
2022-08-17T10:49:53.859Z,100.00
2022-08-17T10:52:25.050Z,100.00
2022-08-17T10:54:57.933Z,100.00
2022-08-17T10:57:32.235Z,100.00
2022-08-17T11:00:03.661Z,100.00
2022-08-17T11:02:54.762Z,100.00
2022-08-17T11:05:43.675Z,100.00
2022-08-17T11:08:59.621Z,100.00
2022-08-17T11:12:00.727Z,100.00
2022-08-17T11:15:14.134Z,100.00
2022-08-17T11:19:09.960Z,100.00
2022-08-17T11:22:16.278Z,100.00
2022-08-17T11:24:53.583Z,100.00
2022-08-17T11:27:33.982Z,100.00
2022-08-17T11:30:43.459Z,100.00
2022-08-17T11:33:44.902Z,100.00
2022-08-17T11:36:18.012Z,100.00
2022-08-17T11:39:26.999Z,100.00
2022-08-17T11:43:27.335Z,100.00
2022-08-17T11:46:23.679Z,100.00
2022-08-17T11:49:54.593Z,100.00
2022-08-17T11:52:47.017Z,100.00
2022-08-17T11:55:44.442Z,100.00
2022-08-17T11:58:30.046Z,100.00
2022-08-17T12:01:06.174Z,100.00
2022-08-17T12:03:33.494Z,100.00
2022-08-17T12:06:10.861Z,100.00
2022-08-17T12:08:55.208Z,100.00
2022-08-17T12:12:13.319Z,100.00
2022-08-17T12:17:43.038Z,100.00
2022-08-17T12:20:24.025Z,100.00
2022-08-17T12:23:04.031Z,100.00
2022-08-17T12:26:02.902Z,100.00
2022-08-17T12:28:39.232Z,100.00
2022-08-17T12:31:16.777Z,100.00
2022-08-17T12:33:47.440Z,100.00
2022-08-17T12:36:24.725Z,100.00
2022-08-17T12:39:12.918Z,100.00
2022-08-17T12:41:48.214Z,100.00
2022-08-17T12:44:43.010Z,100.00
2022-08-17T12:47:22.535Z,100.00
2022-08-17T12:50:03.825Z,100.00
2022-08-17T12:52:33.093Z,100.00
2022-08-17T12:55:26.323Z,100.00
2022-08-17T12:58:00.919Z,100.00
2022-08-17T13:00:47.682Z,100.00
2022-08-17T13:03:35.698Z,100.00
2022-08-17T13:06:12.943Z,100.00
2022-08-17T13:08:48.080Z,100.00
2022-08-17T13:11:16.209Z,100.00
2022-08-17T13:13:54.149Z,100.00
2022-08-17T13:16:31.948Z,100.00
2022-08-17T13:19:16.815Z,100.00
2022-08-17T13:22:01.358Z,100.00
2022-08-17T13:24:38.269Z,100.00
2022-08-17T13:27:13.015Z,100.00
2022-08-17T13:29:51.358Z,100.00
2022-08-17T13:32:47.192Z,100.00
2022-08-17T13:35:49.915Z,100.00
2022-08-17T13:38:49.617Z,100.00
2022-08-17T13:41:55.402Z,100.00
2022-08-17T13:44:40.456Z,100.00
2022-08-17T13:47:21.880Z,100.00
2022-08-17T13:49:50.413Z,100.00
2022-08-17T13:52:39.556Z,100.00
2022-08-17T13:55:23.603Z,100.00
2022-08-17T13:58:03.984Z,100.00
2022-08-17T14:00:36.722Z,100.00
2022-08-17T14:03:05.696Z,100.00
2022-08-17T14:05:33.837Z,100.00
2022-08-17T14:08:06.861Z,100.00
2022-08-17T14:10:36.573Z,100.00
2022-08-17T14:13:07.395Z,100.00
2022-08-17T14:15:55.201Z,100.00
2022-08-17T14:18:52.022Z,100.00
2022-08-17T14:21:10.536Z,100.00
2022-08-17T14:23:38.456Z,100.00
2022-08-17T14:26:06.213Z,100.00
2022-08-17T14:28:33.518Z,100.00
2022-08-17T14:31:03.701Z,100.00
2022-08-17T14:33:31.056Z,100.00
2022-08-17T14:35:58.714Z,100.00
2022-08-17T14:38:26.159Z,100.00
2022-08-17T14:40:54.186Z,100.00
2022-08-17T14:43:21.539Z,100.00
2022-08-17T14:45:48.839Z,100.00
2022-08-17T14:48:16.202Z,100.00
2022-08-17T14:50:44.314Z,100.00
2022-08-17T14:53:16.254Z,100.00
2022-08-17T14:55:47.112Z,100.00
2022-08-17T14:58:15.984Z,100.00
2022-08-17T15:00:43.689Z,100.00
2022-08-17T15:03:11.802Z,100.00
2022-08-17T15:05:40.369Z,100.00
2022-08-17T15:08:08.087Z,100.00
2022-08-17T15:10:36.322Z,100.00
2022-08-17T15:13:04.132Z,100.00
2022-08-17T15:15:31.486Z,100.00
2022-08-17T15:18:00.399Z,100.00
2022-08-17T15:20:30.342Z,100.00
2022-08-17T15:22:59.418Z,100.00
2022-08-17T15:25:31.957Z,100.00
2022-08-17T15:28:01.131Z,100.00
2022-08-17T15:30:29.916Z,100.00
2022-08-17T15:33:00.629Z,100.00
2022-08-17T15:35:33.846Z,100.00
2022-08-17T15:38:12.065Z,100.00
2022-08-17T15:40:48.370Z,100.00
2022-08-17T15:43:32.651Z,100.00
2022-08-17T15:46:11.947Z,100.00
2022-08-17T15:48:43.441Z,100.00
2022-08-17T15:51:25.143Z,100.00
2022-08-17T15:54:04.234Z,100.00
2022-08-17T15:56:32.710Z,100.00
2022-08-17T15:59:00.384Z,100.00
2022-08-17T16:03:05.648Z,100.00
2022-08-17T16:04:30.233Z,100.00
2022-08-17T16:06:59.914Z,100.00
2022-08-17T16:09:27.875Z,100.00
2022-08-17T16:11:56.093Z,100.00
2022-08-17T16:14:33.933Z,100.00
2022-08-17T16:17:04.931Z,100.00
2022-08-17T16:19:52.584Z,100.00
2022-08-17T16:22:37.797Z,100.00
2022-08-17T16:25:18.745Z,100.00
2022-08-17T16:27:52.791Z,100.00
2022-08-17T16:30:26.182Z,100.00
2022-08-17T16:32:58.010Z,100.00
2022-08-17T16:35:27.355Z,100.00
2022-08-17T16:37:58.398Z,100.00
2022-08-17T16:40:33.100Z,100.00
2022-08-17T16:43:10.368Z,100.00
2022-08-17T16:45:40.353Z,100.00
2022-08-17T16:48:09.761Z,100.00
2022-08-17T16:50:37.580Z,100.00
2022-08-17T16:53:17.344Z,100.00
2022-08-17T16:55:48.119Z,100.00
2022-08-17T16:58:16.173Z,100.00
2022-08-17T17:00:45.657Z,100.00
2022-08-17T17:03:25.793Z,100.00
2022-08-17T17:06:46.838Z,100.00
2022-08-17T17:09:41.984Z,100.00
2022-08-17T17:12:19.214Z,100.00
2022-08-17T17:15:07.698Z,100.00
2022-08-17T17:17:39.534Z,100.00
2022-08-17T17:20:37.902Z,100.00
2022-08-17T17:23:09.439Z,100.00
2022-08-17T17:26:02.462Z,100.00
2022-08-17T17:29:07.961Z,100.00
2022-08-17T17:32:37.989Z,100.00
2022-08-17T17:35:43.529Z,100.00
2022-08-17T17:38:39.254Z,100.00
2022-08-17T17:41:46.860Z,100.00
2022-08-17T17:44:24.383Z,100.00
2022-08-17T17:46:58.737Z,100.00
2022-08-17T17:49:50.191Z,100.00
2022-08-17T17:53:04.142Z,100.00
2022-08-17T17:55:44.190Z,100.00
2022-08-17T17:58:47.778Z,100.00
2022-08-17T18:01:48.995Z,100.00
2022-08-17T18:04:48.401Z,100.00
2022-08-17T18:07:38.072Z,100.00
2022-08-17T18:10:56.394Z,100.00
2022-08-17T18:14:26.801Z,100.00
2022-08-17T18:17:00.452Z,100.00
2022-08-17T18:19:31.617Z,100.00
2022-08-17T18:22:15.152Z,100.00
2022-08-17T18:24:49.361Z,100.00
2022-08-17T18:27:40.517Z,100.00
2022-08-17T18:30:13.815Z,100.00
2022-08-17T18:32:46.499Z,100.00
2022-08-17T18:35:16.147Z,100.00
2022-08-17T18:37:51.508Z,100.00
2022-08-17T18:40:21.723Z,100.00
2022-08-17T18:43:02.827Z,100.00
2022-08-17T18:45:56.256Z,100.00
2022-08-17T18:48:52.739Z,100.00
2022-08-17T18:51:43.276Z,100.00
2022-08-17T18:54:19.057Z,100.00
2022-08-17T18:57:00.317Z,100.00
2022-08-17T18:59:50.015Z,100.00
2022-08-17T19:02:36.071Z,100.00
2022-08-17T19:06:28.278Z,100.00
2022-08-17T19:08:55.832Z,100.00
2022-08-17T19:11:34.134Z,100.00
2022-08-17T19:14:09.025Z,100.00
2022-08-17T19:16:53.281Z,100.00
2022-08-17T19:19:53.964Z,100.00
2022-08-17T19:22:59.084Z,100.00
2022-08-17T19:25:46.103Z,100.00
2022-08-17T19:28:21.629Z,100.00
2022-08-17T19:31:04.468Z,100.00
2022-08-17T19:33:32.480Z,100.00
2022-08-17T19:36:25.161Z,100.00
2022-08-17T19:39:18.306Z,100.00
2022-08-17T19:42:13.291Z,100.00
2022-08-17T19:45:19.331Z,100.00
2022-08-17T19:49:03.955Z,100.00
2022-08-17T19:51:43.864Z,100.00
2022-08-17T19:55:03.502Z,100.00
2022-08-17T19:58:02.259Z,100.00
2022-08-17T20:00:31.367Z,100.00
2022-08-17T20:03:08.888Z,100.00
2022-08-17T20:06:10.983Z,100.00
2022-08-17T20:09:23.967Z,100.00
2022-08-17T20:12:19.708Z,100.00
2022-08-17T20:14:58.416Z,100.00
2022-08-17T20:17:37.282Z,100.00
2022-08-17T20:20:47.024Z,100.00
2022-08-17T20:24:01.835Z,100.00
2022-08-17T20:27:14.448Z,100.00
2022-08-17T20:30:39.279Z,100.00
2022-08-17T20:33:40.676Z,100.00
2022-08-17T20:36:24.710Z,100.00
2022-08-17T20:38:58.988Z,100.00
2022-08-17T20:41:30.791Z,100.00
2022-08-17T20:43:58.738Z,100.00
2022-08-17T20:47:01.316Z,100.00
2022-08-17T20:49:44.609Z,100.00
2022-08-17T20:52:37.407Z,100.00
2022-08-17T20:55:05.625Z,100.00
2022-08-17T20:57:33.508Z,100.00
2022-08-17T21:00:19.187Z,100.00
2022-08-17T21:02:51.193Z,100.00
2022-08-17T21:05:59.777Z,100.00
2022-08-17T21:08:30.544Z,100.00
2022-08-17T21:11:01.147Z,100.00
2022-08-17T21:14:17.370Z,100.00
2022-08-17T21:17:29.649Z,100.00
2022-08-17T21:20:40.114Z,100.00
2022-08-17T21:23:57.824Z,100.00
2022-08-17T21:26:55.403Z,100.00
2022-08-17T21:29:32.874Z,100.00
2022-08-17T21:32:05.462Z,100.00
2022-08-17T21:34:43.937Z,100.00
2022-08-17T21:37:23.370Z,100.00
2022-08-17T21:40:23.650Z,100.00
2022-08-17T21:43:00.321Z,100.00
2022-08-17T21:45:41.626Z,100.00
2022-08-17T21:48:25.336Z,100.00
2022-08-17T21:51:20.597Z,100.00
2022-08-17T21:54:23.452Z,100.00
2022-08-17T21:56:51.231Z,100.00
2022-08-17T21:59:19.416Z,100.00
2022-08-17T22:02:34.920Z,100.00
2022-08-17T22:05:14.556Z,100.00
2022-08-17T22:08:02.222Z,100.00
2022-08-17T22:10:44.346Z,100.00
2022-08-17T22:13:22.487Z,100.00
2022-08-17T22:16:28.936Z,100.00
2022-08-17T22:18:59.323Z,100.00
2022-08-17T22:21:27.307Z,100.00
2022-08-17T22:24:24.630Z,100.00
2022-08-17T22:27:10.967Z,100.00
2022-08-17T22:29:58.235Z,100.00
2022-08-17T22:32:44.681Z,100.00
2022-08-17T22:35:41.164Z,100.00
2022-08-17T22:38:20.505Z,100.00
2022-08-17T22:41:51.115Z,100.00
2022-08-17T22:44:24.146Z,100.00
2022-08-17T22:47:16.347Z,100.00
2022-08-17T22:50:21.312Z,100.00
2022-08-17T22:53:33.298Z,100.00
2022-08-17T22:56:19.267Z,100.00
2022-08-17T22:59:18.608Z,100.00
2022-08-17T23:02:25.139Z,100.00
2022-08-17T23:05:16.658Z,100.00
2022-08-17T23:07:47.495Z,100.00
2022-08-17T23:10:15.674Z,100.00
2022-08-17T23:12:43.020Z,100.00
2022-08-17T23:15:17.649Z,100.00
2022-08-17T23:17:45.465Z,100.00
2022-08-17T23:20:17.522Z,100.00
2022-08-17T23:22:52.527Z,100.00
2022-08-17T23:25:32.371Z,100.00
2022-08-17T23:28:02.496Z,100.00
2022-08-17T23:30:35.593Z,100.00
2022-08-17T23:33:29.951Z,100.00
2022-08-17T23:35:58.864Z,100.00
2022-08-17T23:38:27.640Z,100.00
2022-08-17T23:41:00.011Z,100.00
2022-08-17T23:43:31.372Z,100.00
2022-08-17T23:46:03.655Z,100.00
2022-08-17T23:48:35.699Z,100.00
2022-08-17T23:51:22.619Z,100.00
2022-08-17T23:54:11.636Z,100.00
2022-08-17T23:56:46.697Z,100.00
2022-08-17T23:59:23.978Z,100.00
